createdAt,value
2019-04-05T00:00:10.767Z,44.97
2019-04-05T00:02:41.707Z,37.33
2019-04-05T00:05:11.386Z,40.70
2019-04-05T00:07:40.707Z,36.30
2019-04-05T00:10:10.584Z,37.13
2019-04-05T00:12:39.904Z,41.47
2019-04-05T00:15:15.688Z,38.53
2019-04-05T00:17:40.744Z,46.10
2019-04-05T00:20:10.249Z,42.90
2019-04-05T00:22:39.586Z,44.47
2019-04-05T00:25:09.067Z,45.50
2019-04-05T00:27:38.393Z,49.43
2019-04-05T00:30:08.655Z,43.40
2019-04-05T00:32:37.983Z,44.33
2019-04-05T00:35:07.739Z,52.80
2019-04-05T00:37:37.079Z,48.87
2019-04-05T00:40:10.695Z,47.40
2019-04-05T00:42:40.043Z,46.70
2019-04-05T00:45:09.596Z,47.07
2019-04-05T00:47:39.073Z,49.47
2019-04-05T00:50:08.928Z,45.80
2019-04-05T00:52:38.389Z,44.33
2019-04-05T00:55:08.457Z,45.80
2019-04-05T00:57:37.852Z,47.03
2019-04-05T01:00:07.913Z,42.07
2019-04-05T01:02:37.407Z,54.13
2019-04-05T01:05:07.246Z,52.77
2019-04-05T01:07:36.864Z,50.47
2019-04-05T01:10:07.285Z,55.40
2019-04-05T01:12:37.647Z,66.43
2019-04-05T01:15:08.530Z,69.17
2019-04-05T01:17:38.420Z,77.47
2019-04-05T01:20:09.815Z,73.23
2019-04-05T01:22:41.257Z,75.50
2019-04-05T01:25:10.703Z,74.03
2019-04-05T01:27:40.868Z,71.77
2019-04-05T01:30:12.909Z,77.57
2019-04-05T01:32:42.394Z,92.50
2019-04-05T01:35:11.795Z,81.63
2019-04-05T01:37:41.199Z,78.50
2019-04-05T01:40:11.931Z,79.50
2019-04-05T01:42:41.602Z,76.07
2019-04-05T01:45:12.073Z,84.50
2019-04-05T01:47:41.478Z,83.63
2019-04-05T01:50:11.540Z,82.87
2019-04-05T01:52:41.937Z,78.27
2019-04-05T01:55:11.790Z,70.93
2019-04-05T01:57:41.123Z,71.07
2019-04-05T02:00:11.794Z,68.17
2019-04-05T02:02:41.484Z,68.33
2019-04-05T02:05:11.145Z,71.17
2019-04-05T02:07:41.123Z,75.90
2019-04-05T02:10:10.887Z,67.70
2019-04-05T02:12:40.752Z,74.07
2019-04-05T02:15:11.998Z,76.03
2019-04-05T02:17:41.400Z,72.20
2019-04-05T02:20:11.052Z,65.03
2019-04-05T02:22:40.391Z,68.10
2019-04-05T02:25:10.163Z,64.97
2019-04-05T02:27:39.551Z,69.57
2019-04-05T02:30:09.543Z,73.93
2019-04-05T02:32:38.920Z,70.80
2019-04-05T02:35:09.165Z,73.00
2019-04-05T02:37:38.537Z,71.37
2019-04-05T02:40:11.044Z,72.63
2019-04-05T02:42:42.705Z,75.10
2019-04-05T02:45:13.539Z,79.80
2019-04-05T02:47:45.992Z,68.53
2019-04-05T02:50:16.480Z,69.17
2019-04-05T02:52:48.071Z,69.93
2019-04-05T02:55:17.872Z,75.53
2019-04-05T02:57:48.043Z,68.80
2019-04-05T03:00:17.378Z,67.17
2019-04-05T03:02:47.806Z,67.03
2019-04-05T03:05:18.270Z,70.93
2019-04-05T03:07:47.824Z,64.63
2019-04-05T03:10:42.816Z,65.70
2019-04-05T03:13:12.777Z,69.43
2019-04-05T03:15:42.712Z,62.43
2019-04-05T03:18:12.375Z,62.87
2019-04-05T03:20:42.747Z,65.53
2019-04-05T03:23:13.773Z,67.80
2019-04-05T03:25:47.978Z,66.83
2019-04-05T03:28:15.431Z,73.43
2019-04-05T03:30:44.904Z,75.27
2019-04-05T03:33:14.284Z,82.13
2019-04-05T03:35:44.685Z,78.60
2019-04-05T03:38:15.722Z,77.73
2019-04-05T03:40:45.225Z,76.07
2019-04-05T03:43:15.080Z,87.63
2019-04-05T03:45:44.584Z,75.20
2019-04-05T03:48:14.248Z,77.37
2019-04-05T03:50:45.239Z,72.20
2019-04-05T03:53:15.329Z,76.90
2019-04-05T03:55:45.465Z,78.77
2019-04-05T03:58:14.879Z,79.07
2019-04-05T04:00:44.278Z,83.20
2019-04-05T04:03:15.209Z,79.63
2019-04-05T04:05:44.711Z,79.63
2019-04-05T04:08:14.339Z,79.50
2019-04-05T04:10:45.287Z,81.93
2019-04-05T04:13:14.848Z,82.67
2019-04-05T04:15:44.524Z,82.77
2019-04-05T04:18:14.181Z,81.77
2019-04-05T04:20:49.998Z,79.27
2019-04-05T04:23:20.492Z,83.70
2019-04-05T04:25:51.067Z,82.20
2019-04-05T04:28:20.929Z,85.17
2019-04-05T04:30:50.671Z,85.27
2019-04-05T04:33:20.628Z,83.00
2019-04-05T04:35:50.788Z,90.30
2019-04-05T04:38:20.341Z,88.97
2019-04-05T04:40:49.803Z,91.50
2019-04-05T04:43:20.465Z,88.27
2019-04-05T04:45:50.290Z,91.83
2019-04-05T04:48:20.077Z,88.00
2019-04-05T04:50:49.768Z,85.73
2019-04-05T04:53:19.440Z,84.60
2019-04-05T04:55:49.002Z,94.30
2019-04-05T04:58:18.409Z,91.33
2019-04-05T05:00:47.995Z,89.47
2019-04-05T05:03:17.588Z,84.87
2019-04-05T05:05:47.308Z,78.07
2019-04-05T05:08:17.239Z,84.87
2019-04-05T05:10:47.396Z,81.53
2019-04-05T05:13:17.019Z,87.57
2019-04-05T05:15:46.964Z,87.03
2019-04-05T05:18:16.437Z,78.03
2019-04-05T05:20:45.991Z,80.53
2019-04-05T05:23:15.664Z,79.37
2019-04-05T05:25:46.909Z,79.00
2019-04-05T05:28:16.698Z,72.23
2019-04-05T05:30:46.354Z,67.23
2019-04-05T05:33:15.751Z,66.00
2019-04-05T05:35:45.306Z,70.47
2019-04-05T05:38:15.077Z,62.57
2019-04-05T05:40:44.547Z,66.70
2019-04-05T05:43:13.944Z,70.90
2019-04-05T05:45:43.360Z,65.97
2019-04-05T05:48:13.028Z,65.00
2019-04-05T05:50:43.588Z,61.77
2019-04-05T05:53:13.547Z,64.40
2019-04-05T05:55:42.912Z,61.80
2019-04-05T05:58:12.247Z,60.07
2019-04-05T06:00:41.662Z,64.43
2019-04-05T06:03:11.925Z,61.37
2019-04-05T06:05:41.485Z,65.40
2019-04-05T06:08:10.807Z,66.53
2019-04-05T06:10:40.140Z,62.80
2019-04-05T06:13:09.560Z,59.03
2019-04-05T06:15:39.871Z,61.80
2019-04-05T06:18:11.912Z,67.90
2019-04-05T06:20:40.608Z,58.17
2019-04-05T06:23:09.939Z,63.73
2019-04-05T06:25:40.277Z,66.77
2019-04-05T06:28:09.646Z,61.77
2019-04-05T06:30:38.976Z,63.40
2019-04-05T06:33:08.481Z,63.10
2019-04-05T06:35:37.815Z,67.70
2019-04-05T06:38:07.268Z,68.20
2019-04-05T06:40:40.953Z,72.00
2019-04-05T06:43:09.243Z,63.13
2019-04-05T06:45:38.674Z,63.93
2019-04-05T06:48:18.432Z,68.73
2019-04-05T06:50:39.170Z,67.67
2019-04-05T06:53:08.490Z,65.10
2019-04-05T06:55:37.824Z,74.37
2019-04-05T06:58:10.230Z,67.93
2019-04-05T07:00:38.247Z,73.00
2019-04-05T07:03:07.655Z,73.03
2019-04-05T07:05:38.036Z,66.43
2019-04-05T07:08:07.362Z,79.03
2019-04-05T07:10:36.755Z,75.20
2019-04-05T07:13:06.176Z,74.57
2019-04-05T07:15:37.448Z,76.10
2019-04-05T07:18:06.868Z,73.67
2019-04-05T07:20:36.203Z,75.93
2019-04-05T07:23:05.671Z,77.63
2019-04-05T07:25:34.996Z,79.23
2019-04-05T07:28:04.328Z,76.23
2019-04-05T07:30:33.720Z,79.43
2019-04-05T07:33:03.055Z,80.97
2019-04-05T07:35:33.962Z,76.07
2019-04-05T07:38:06.303Z,78.87
2019-04-05T07:40:36.780Z,77.43
2019-04-05T07:43:06.241Z,74.97
2019-04-05T07:45:35.629Z,70.87
2019-04-05T07:48:05.100Z,76.07
2019-04-05T07:50:34.424Z,71.87
2019-04-05T07:53:03.916Z,78.87
2019-04-05T07:55:33.243Z,75.90
2019-04-05T07:58:02.609Z,77.73
2019-04-05T08:00:44.608Z,79.60
2019-04-05T08:03:14.078Z,77.57
2019-04-05T08:05:43.743Z,70.57
2019-04-05T08:08:16.164Z,76.83
2019-04-05T08:10:46.809Z,77.00
2019-04-05T08:13:17.199Z,74.30
2019-04-05T08:15:46.510Z,79.90
2019-04-05T08:18:15.839Z,76.20
2019-04-05T08:20:45.485Z,69.43
2019-04-05T08:23:15.439Z,67.13
2019-04-05T08:25:45.833Z,70.37
2019-04-05T08:28:15.218Z,76.53
2019-04-05T08:30:44.653Z,75.27
2019-04-05T08:33:15.175Z,70.20
2019-04-05T08:35:44.506Z,64.87
2019-04-05T08:38:13.830Z,65.93
2019-04-05T08:40:43.163Z,68.10
2019-04-05T08:43:12.691Z,65.47
2019-04-05T08:45:42.691Z,72.33
2019-04-05T08:48:12.084Z,71.03
2019-04-05T08:50:41.495Z,69.53
2019-04-05T08:53:11.103Z,70.83
2019-04-05T08:55:40.431Z,68.23
2019-04-05T08:58:09.754Z,69.10
2019-04-05T09:00:40.128Z,68.57
2019-04-05T09:03:11.954Z,67.47
2019-04-05T09:05:41.007Z,69.50
2019-04-05T09:08:10.589Z,68.53
2019-04-05T09:10:39.955Z,74.53
2019-04-05T09:13:09.287Z,76.40
2019-04-05T09:15:38.854Z,75.70
2019-04-05T09:18:08.261Z,72.43
2019-04-05T09:20:37.597Z,79.00
2019-04-05T09:23:06.913Z,70.17
2019-04-05T09:25:36.419Z,75.60
2019-04-05T09:28:05.742Z,79.33
2019-04-05T09:30:35.143Z,69.30
2019-04-05T09:33:04.583Z,70.93
2019-04-05T09:35:33.934Z,79.23
2019-04-05T09:38:03.273Z,72.00
2019-04-05T09:40:32.648Z,74.20
2019-04-05T09:43:01.971Z,73.43
2019-04-05T09:45:31.303Z,67.83
2019-04-05T09:48:00.698Z,70.17
2019-04-05T09:50:30.030Z,72.90
2019-04-05T09:52:59.355Z,74.03
2019-04-05T09:55:28.691Z,70.43
2019-04-05T09:57:58.219Z,73.90
2019-04-05T10:00:29.308Z,71.83
2019-04-05T10:02:58.753Z,85.67
2019-04-05T10:05:28.219Z,72.63
2019-04-05T10:07:57.548Z,66.53
2019-04-05T10:10:26.895Z,77.40
2019-04-05T10:12:56.519Z,68.87
2019-04-05T10:15:25.852Z,71.97
2019-04-05T10:17:55.180Z,65.67
2019-04-05T10:20:24.597Z,69.97
2019-04-05T10:22:53.926Z,69.00
2019-04-05T10:25:23.287Z,68.90
2019-04-05T10:27:52.615Z,64.50
2019-04-05T10:30:22.196Z,71.97
2019-04-05T10:32:52.592Z,66.27
2019-04-05T10:35:21.931Z,70.83
2019-04-05T10:37:51.361Z,81.47
2019-04-05T10:40:20.788Z,78.27
2019-04-05T10:42:50.167Z,70.47
2019-04-05T10:45:19.991Z,71.93
2019-04-05T10:47:50.574Z,72.30
2019-04-05T10:50:20.342Z,72.23
2019-04-05T10:52:49.903Z,70.27
2019-04-05T10:55:19.240Z,71.07
2019-04-05T10:57:48.590Z,81.33
2019-04-05T11:00:18.563Z,68.20
2019-04-05T11:02:48.158Z,73.63
2019-04-05T11:05:17.496Z,74.77
2019-04-05T11:07:46.822Z,76.93
2019-04-05T11:10:16.401Z,73.13
2019-04-05T11:12:45.859Z,72.40
2019-04-05T11:15:15.419Z,65.60
2019-04-05T11:17:44.844Z,73.53
2019-04-05T11:20:22.583Z,68.97
2019-04-05T11:22:46.876Z,65.47
2019-04-05T11:25:16.559Z,67.33
2019-04-05T11:27:45.936Z,73.77
2019-04-05T11:30:17.067Z,77.23
2019-04-05T11:32:46.936Z,76.47
2019-04-05T11:35:16.740Z,74.73
2019-04-05T11:37:49.801Z,77.33
2019-04-05T11:40:17.523Z,83.40
2019-04-05T11:42:47.423Z,80.13
2019-04-05T11:45:16.754Z,76.63
2019-04-05T11:47:46.835Z,73.87
2019-04-05T11:50:16.594Z,75.10
2019-04-05T11:52:45.999Z,76.37
2019-04-05T11:55:18.237Z,76.10
2019-04-05T11:57:48.636Z,72.00
2019-04-05T12:00:22.892Z,73.63
2019-04-05T12:02:53.884Z,79.43
2019-04-05T12:05:26.844Z,68.47
2019-04-05T12:07:58.563Z,73.90
2019-04-05T12:10:25.283Z,71.53
2019-04-05T12:12:54.620Z,70.33
2019-04-05T12:15:23.955Z,69.67
2019-04-05T12:17:53.309Z,72.50
2019-04-05T12:20:22.724Z,71.07
2019-04-05T12:22:52.674Z,70.00
2019-04-05T12:25:22.151Z,74.37
2019-04-05T12:27:51.570Z,70.40
2019-04-05T12:30:22.682Z,66.67
2019-04-05T12:32:52.015Z,73.43
2019-04-05T12:35:22.089Z,76.10
2019-04-05T12:37:55.519Z,72.43
2019-04-05T12:40:22.475Z,69.23
2019-04-05T12:42:53.168Z,67.47
2019-04-05T12:45:22.615Z,67.20
2019-04-05T12:47:52.023Z,73.03
2019-04-05T12:50:21.423Z,74.60
2019-04-05T12:52:50.759Z,83.07
2019-04-05T12:55:23.853Z,64.93
2019-04-05T12:57:51.124Z,74.97
2019-04-05T13:00:21.420Z,72.00
2019-04-05T13:02:50.996Z,74.40
2019-04-05T13:05:21.854Z,67.77
2019-04-05T13:07:52.602Z,72.23
2019-04-05T13:10:25.176Z,69.20
2019-04-05T13:12:56.705Z,74.43
2019-04-05T13:15:25.972Z,77.90
2019-04-05T13:17:55.400Z,66.80
2019-04-05T13:20:24.783Z,77.77
2019-04-05T13:22:54.183Z,66.93
2019-04-05T13:25:23.587Z,66.87
2019-04-05T13:27:52.983Z,65.40
2019-04-05T13:30:23.936Z,68.43
2019-04-05T13:32:53.599Z,71.73
2019-04-05T13:35:23.038Z,66.80
2019-04-05T13:37:52.386Z,76.27
2019-04-05T13:40:21.779Z,68.83
2019-04-05T13:42:51.261Z,80.00
2019-04-05T13:45:20.660Z,69.77
2019-04-05T13:47:50.076Z,70.83
2019-04-05T13:50:19.711Z,71.77
2019-04-05T13:52:49.183Z,78.93
2019-04-05T13:55:18.570Z,77.40
2019-04-05T13:57:47.979Z,72.37
2019-04-05T14:00:18.513Z,77.63
2019-04-05T14:02:50.113Z,77.67
2019-04-05T14:05:19.099Z,77.57
2019-04-05T14:07:48.428Z,86.90
2019-04-05T14:10:18.007Z,84.23
2019-04-05T14:12:47.340Z,77.67
2019-04-05T14:15:16.832Z,73.27
2019-04-05T14:17:49.022Z,73.60
2019-04-05T14:20:19.632Z,74.67
2019-04-05T14:22:51.461Z,73.43
2019-04-05T14:25:21.300Z,70.07
2019-04-05T14:27:50.636Z,73.37
2019-04-05T14:30:20.226Z,74.43
2019-04-05T14:32:51.135Z,74.57
2019-04-05T14:35:24.361Z,73.83
2019-04-05T14:37:54.523Z,79.27
2019-04-05T14:40:23.625Z,65.20
2019-04-05T14:42:52.990Z,77.13
2019-04-05T14:45:22.303Z,74.30
2019-04-05T14:47:51.630Z,66.50
2019-04-05T14:50:21.034Z,75.30
2019-04-05T14:52:50.451Z,72.23
2019-04-05T14:55:19.911Z,70.83
2019-04-05T14:57:49.242Z,71.77
2019-04-05T15:00:21.363Z,75.60
2019-04-05T15:02:50.710Z,79.33
2019-04-05T15:05:20.099Z,73.90
2019-04-05T15:07:51.125Z,71.60
2019-04-05T15:10:21.010Z,76.40
2019-04-05T15:12:50.388Z,73.90
2019-04-05T15:15:19.730Z,72.90
2019-04-05T15:17:49.058Z,65.80
2019-04-05T15:20:18.583Z,70.03
2019-04-05T15:22:48.896Z,76.33
2019-04-05T15:25:21.554Z,71.90
2019-04-05T15:27:53.859Z,71.70
2019-04-05T15:30:20.635Z,75.37
2019-04-05T15:32:51.521Z,71.63
2019-04-05T15:35:20.981Z,71.40
2019-04-05T15:37:50.305Z,72.63
2019-04-05T15:40:19.639Z,69.57
2019-04-05T15:42:49.004Z,71.13
2019-04-05T15:45:18.571Z,74.00
2019-04-05T15:47:47.915Z,72.20
2019-04-05T15:50:17.470Z,72.80
2019-04-05T15:52:46.861Z,72.93
2019-04-05T15:55:16.204Z,83.93
2019-04-05T15:57:45.531Z,78.43
2019-04-05T16:00:18.685Z,76.60
2019-04-05T16:02:48.095Z,75.13
2019-04-05T16:05:18.502Z,75.47
2019-04-05T16:07:47.838Z,78.93
2019-04-05T16:10:17.406Z,73.07
2019-04-05T16:12:46.801Z,76.33
2019-04-05T16:15:16.211Z,81.10
2019-04-05T16:17:45.618Z,69.17
2019-04-05T16:20:15.581Z,79.47
2019-04-05T16:22:44.931Z,80.43
2019-04-05T16:25:14.412Z,76.93
2019-04-05T16:27:43.751Z,77.17
2019-04-05T16:30:13.529Z,72.67
2019-04-05T16:32:42.867Z,74.30
2019-04-05T16:35:14.592Z,81.20
2019-04-05T16:37:43.387Z,75.23
2019-04-05T16:40:13.624Z,74.87
2019-04-05T16:42:43.020Z,68.93
2019-04-05T16:45:12.955Z,73.00
2019-04-05T16:47:42.294Z,77.13
2019-04-05T16:50:11.956Z,75.53
2019-04-05T16:52:45.257Z,68.77
2019-04-05T16:55:12.983Z,69.83
2019-04-05T16:57:42.320Z,75.17
2019-04-05T17:00:13.703Z,71.47
2019-04-05T17:02:44.054Z,74.53
2019-04-05T17:05:13.760Z,72.67
2019-04-05T17:07:43.121Z,69.03
2019-04-05T17:10:12.513Z,107.53
2019-04-05T17:12:41.916Z,70.83
2019-04-05T17:15:11.470Z,77.47
2019-04-05T17:17:40.915Z,78.87
2019-04-05T17:20:10.575Z,73.17
2019-04-05T17:22:39.981Z,74.40
2019-04-05T17:25:10.364Z,74.20
2019-04-05T17:27:39.788Z,74.87
2019-04-05T17:30:09.552Z,75.03
2019-04-05T17:32:38.892Z,72.33
2019-04-05T17:35:08.558Z,78.87
2019-04-05T17:37:38.955Z,72.70
2019-04-05T17:40:08.854Z,82.07
2019-04-05T17:42:38.215Z,76.87
2019-04-05T17:45:08.483Z,71.80
2019-04-05T17:47:37.825Z,72.07
2019-04-05T17:50:10.428Z,76.13
2019-04-05T17:52:38.861Z,74.97
2019-04-05T17:55:08.530Z,74.60
2019-04-05T17:57:37.951Z,77.33
2019-04-05T18:00:12.035Z,77.20
2019-04-05T18:02:41.479Z,79.27
2019-04-05T18:05:10.984Z,75.27
2019-04-05T18:07:40.310Z,85.67
2019-04-05T18:10:09.884Z,94.23
2019-04-05T18:12:39.208Z,74.30
2019-04-05T18:15:08.891Z,87.83
2019-04-05T18:17:38.207Z,84.07
2019-04-05T18:20:09.776Z,81.17
2019-04-05T18:22:39.512Z,82.13
2019-04-05T18:25:09.140Z,94.47
2019-04-05T18:27:38.503Z,87.60
2019-04-05T18:30:08.411Z,80.73
2019-04-05T18:32:37.735Z,79.77
2019-04-05T18:35:07.482Z,83.93
2019-04-05T18:37:36.811Z,89.73
2019-04-05T18:40:07.624Z,93.97
2019-04-05T18:42:36.935Z,99.13
2019-04-05T18:45:07.610Z,89.10
2019-04-05T18:47:36.952Z,83.57
2019-04-05T18:50:07.281Z,82.43
2019-04-05T18:52:36.596Z,84.37
2019-04-05T18:55:07.167Z,82.40
2019-04-05T18:57:36.490Z,86.33
2019-04-05T19:00:07.904Z,83.03
2019-04-05T19:02:37.216Z,77.17
2019-04-05T19:05:07.207Z,80.83
2019-04-05T19:07:36.550Z,81.47
2019-04-05T19:10:07.677Z,83.77
2019-04-05T19:12:37.059Z,84.20
2019-04-05T19:15:07.945Z,78.47
2019-04-05T19:17:37.274Z,80.17
2019-04-05T19:20:07.660Z,81.07
2019-04-05T19:22:37.007Z,82.27
2019-04-05T19:25:08.056Z,87.43
2019-04-05T19:27:37.432Z,72.50
2019-04-05T19:50:15.738Z,73.07
2019-04-05T19:52:45.170Z,74.33
2019-04-05T19:55:14.571Z,74.90
2019-04-05T19:57:43.903Z,76.07
2019-04-05T20:00:13.530Z,72.33
2019-04-05T20:02:42.938Z,75.57
2019-04-05T20:05:14.337Z,66.97
2019-04-05T20:07:44.631Z,71.00
2019-04-05T20:10:14.370Z,75.53
2019-04-05T20:12:43.703Z,68.70
2019-04-05T20:15:13.358Z,73.83
2019-04-05T20:17:42.762Z,72.70
2019-04-05T20:20:12.419Z,71.47
2019-04-05T20:22:42.719Z,71.77
2019-04-05T20:25:13.877Z,67.33
2019-04-05T20:27:43.442Z,72.27
2019-04-05T20:30:12.831Z,78.47
2019-04-05T20:32:42.157Z,74.97
2019-04-05T20:35:11.592Z,70.37
2019-04-05T20:37:40.975Z,71.17
2019-04-05T20:40:10.563Z,73.60
2019-04-05T20:42:39.979Z,71.70
2019-04-05T20:45:09.643Z,74.20
2019-04-05T20:47:38.964Z,74.37
2019-04-05T20:50:08.387Z,72.20
2019-04-05T20:52:38.780Z,71.70
2019-04-05T20:55:08.353Z,75.13
2019-04-05T20:57:37.675Z,79.07
2019-04-05T21:00:09.311Z,74.10
2019-04-05T21:02:39.609Z,78.00
2019-04-05T21:05:09.159Z,82.33
2019-04-05T21:07:38.485Z,79.60
2019-04-05T21:10:08.081Z,77.97
2019-04-05T21:12:37.438Z,70.87
2019-04-05T21:15:07.300Z,68.90
2019-04-05T21:17:36.632Z,80.53
2019-04-05T21:20:07.105Z,73.70
2019-04-05T21:22:36.434Z,78.57
2019-04-05T21:25:06.896Z,73.67
2019-04-05T21:27:36.224Z,72.60
2019-04-05T21:30:08.689Z,80.87
2019-04-05T21:32:38.013Z,79.60
2019-04-05T21:35:07.595Z,74.87
2019-04-05T21:37:38.255Z,81.50
2019-04-05T21:40:07.922Z,82.30
2019-04-05T21:42:37.244Z,88.37
2019-04-05T21:45:07.319Z,83.97
2019-04-05T21:47:36.640Z,83.50
2019-04-05T21:50:08.793Z,86.33
2019-04-05T21:52:38.174Z,90.27
2019-04-05T21:55:08.275Z,83.60
2019-04-05T21:57:37.606Z,88.27
2019-04-05T22:00:13.044Z,84.20
2019-04-05T22:02:43.800Z,84.10
2019-04-05T22:05:13.515Z,94.83
2019-04-05T22:07:42.848Z,98.30
2019-04-05T22:10:12.349Z,93.13
2019-04-05T22:12:41.671Z,97.27
2019-04-05T22:15:11.171Z,97.03
2019-04-05T22:17:40.560Z,93.67
2019-04-05T22:20:10.134Z,85.60
2019-04-05T22:22:39.510Z,85.10
2019-04-05T22:25:09.017Z,91.03
2019-04-05T22:27:38.347Z,84.30
2019-04-05T22:30:08.706Z,87.73
2019-04-05T22:32:38.213Z,86.20
2019-04-05T22:35:07.763Z,80.90
2019-04-05T22:37:37.090Z,90.43
2019-04-05T22:40:07.454Z,84.90
2019-04-05T22:42:36.787Z,89.63
2019-04-05T22:45:07.303Z,94.07
2019-04-05T22:47:36.637Z,89.17
2019-04-05T22:50:07.015Z,92.27
2019-04-05T22:52:36.347Z,90.03
2019-04-05T22:55:11.385Z,93.67
2019-04-05T22:57:38.355Z,92.10
2019-04-05T23:00:08.686Z,100.97
2019-04-05T23:02:39.675Z,107.47
2019-04-05T23:05:09.488Z,108.37
2019-04-05T23:07:38.828Z,113.40
2019-04-05T23:10:08.800Z,119.03
2019-04-05T23:12:38.234Z,122.93
2019-04-05T23:15:11.029Z,115.10
2019-04-05T23:17:40.367Z,123.80
2019-04-05T23:20:10.132Z,117.20
2019-04-05T23:22:39.471Z,118.50
2019-04-05T23:25:09.135Z,117.00
2019-04-05T23:27:38.473Z,125.67
2019-04-05T23:30:08.624Z,134.30
2019-04-05T23:32:37.984Z,144.43
2019-04-05T23:35:07.710Z,156.43
2019-04-05T23:37:37.091Z,157.67
2019-04-05T23:40:08.321Z,154.90
2019-04-05T23:42:37.668Z,135.77
2019-04-05T23:45:07.523Z,128.03
2019-04-05T23:47:36.849Z,128.73
2019-04-05T23:50:06.625Z,115.60
2019-04-05T23:52:36.458Z,109.03
2019-04-05T23:55:06.945Z,107.30
2019-04-05T23:57:36.264Z,95.90
